This is the latest recevied weather packets stored in our database for station/object W7TRD. If no packets are shown the sender has not sent any weather packets the latest 10 day(s).
| Time | Temp. | Humidity | Pressure | Rain* | Wind** | Luminosity | Snow |
|---|---|---|---|---|---|---|---|
| 1777944624 | 25° C | 57% | 1010.9 hPa | 0 mm | - | 143 W/m² | - |
| 1777944322 | 25° C | 56% | 1011 hPa | 0 mm | - | 153 W/m² | - |
| 1777944019 | 24.44° C | 58% | 1010.7 hPa | 0 mm | - | 166 W/m² | - |
| 1777943714 | 24.44° C | 56% | 1011 hPa | 0 mm | - | 175 W/m² | - |
| 1777943411 | 25.56° C | 55% | 1011.1 hPa | 0 mm | - | 190 W/m² | - |
| 1777943106 | 25° C | 54% | 1010.8 hPa | 0 mm | - | 202 W/m² | - |
| 1777942803 | 25.56° C | 53% | 1011.1 hPa | 0 mm | - | 217 W/m² | - |
| 1777942500 | 25° C | 54% | 1011.2 hPa | 0 mm | - | 228 W/m² | - |
| 1777942198 | 24.44° C | 56% | 1011.1 hPa | 0 mm | - | 247 W/m² | - |
| 1777941894 | 25.56° C | 53% | 1011.2 hPa | 0 mm | - | 260 W/m² | - |
| 1777941591 | 25.56° C | 52% | 1011.2 hPa | 0 mm | - | 272 W/m² | - |
| 1777941288 | 25° C | 55% | 1011.2 hPa | 0 mm | - | 286 W/m² | - |
| 1777940984 | 25° C | 54% | 1011.3 hPa | 0 mm | - | 303 W/m² | - |
| 1777940680 | 25° C | 53% | 1011.3 hPa | 0 mm | - | 314 W/m² | - |
| 1777940379 | 25° C | 54% | 1011.5 hPa | 0 mm | - | 331 W/m² | - |
| 1777940076 | 25° C | 53% | 1011.2 hPa | 0 mm | - | 345 W/m² | - |
| 1777939773 | 25° C | 54% | 1011.4 hPa | 0 mm | - | 360 W/m² | - |
| 1777939471 | 24.44° C | 54% | 1011.5 hPa | 0 mm | - | 375 W/m² | - |
| 1777939168 | 23.89° C | 57% | 1011.2 hPa | 0 mm | - | 386 W/m² | - |
| 1777938865 | 24.44° C | 54% | 1011.5 hPa | 0 mm | - | 401 W/m² | - |
| 1777938561 | 24.44° C | 54% | 1011.5 hPa | 0 mm | - | 416 W/m² | - |
| 1777938259 | 25° C | 53% | 1011.6 hPa | 0 mm | - | 429 W/m² | - |
| 1777937955 | 25° C | 53% | 1011.6 hPa | 0 mm | - | 443 W/m² | - |
| 1777937651 | 24.44° C | 54% | 1011.6 hPa | 0 mm | - | 456 W/m² | - |
| 1777937348 | 24.44° C | 54% | 1011.6 hPa | 0 mm | - | 463 W/m² | - |
* Rain latest hour (hover to see other rain measurements)
** Current wind speed in m/s (hover to see current wind gust speed)